sensor_id;sensor_type;location;lat;lon;timestamp;P1;durP1;ratioP1;P2;durP2;ratioP2
58071;SDS011;60383;46.626;18.866;2023-09-18T00:00:44;6.60;;;4.25;;
58071;SDS011;60383;46.626;18.866;2023-09-18T00:03:11;6.35;;;4.20;;
58071;SDS011;60383;46.626;18.866;2023-09-18T00:05:36;5.97;;;3.95;;
58071;SDS011;60383;46.626;18.866;2023-09-18T00:08:02;6.15;;;4.20;;
58071;SDS011;60383;46.626;18.866;2023-09-18T00:10:28;7.15;;;4.53;;
58071;SDS011;60383;46.626;18.866;2023-09-18T00:12:56;6.55;;;4.45;;
58071;SDS011;60383;46.626;18.866;2023-09-18T00:15:22;6.38;;;4.28;;
58071;SDS011;60383;46.626;18.866;2023-09-18T00:17:48;5.78;;;4.03;;
58071;SDS011;60383;46.626;18.866;2023-09-18T00:20:13;6.07;;;4.60;;
58071;SDS011;60383;46.626;18.866;2023-09-18T00:22:41;5.35;;;4.30;;
58071;SDS011;60383;46.626;18.866;2023-09-18T00:25:07;5.45;;;4.43;;
58071;SDS011;60383;46.626;18.866;2023-09-18T00:27:32;6.30;;;4.20;;
58071;SDS011;60383;46.626;18.866;2023-09-18T00:29:58;6.85;;;4.60;;
58071;SDS011;60383;46.626;18.866;2023-09-18T00:32:23;7.22;;;4.35;;
58071;SDS011;60383;46.626;18.866;2023-09-18T00:34:49;5.95;;;4.35;;
58071;SDS011;60383;46.626;18.866;2023-09-18T00:37:14;6.05;;;4.18;;
58071;SDS011;60383;46.626;18.866;2023-09-18T00:39:42;7.07;;;4.50;;
58071;SDS011;60383;46.626;18.866;2023-09-18T00:42:08;5.25;;;4.10;;
58071;SDS011;60383;46.626;18.866;2023-09-18T00:44:38;6.15;;;4.50;;
58071;SDS011;60383;46.626;18.866;2023-09-18T00:47:05;5.95;;;4.40;;
58071;SDS011;60383;46.626;18.866;2023-09-18T00:49:31;7.18;;;4.60;;
58071;SDS011;60383;46.626;18.866;2023-09-18T00:51:58;6.25;;;4.97;;
58071;SDS011;60383;46.626;18.866;2023-09-18T00:54:23;5.45;;;4.43;;
58071;SDS011;60383;46.626;18.866;2023-09-18T00:56:49;6.35;;;4.53;;
58071;SDS011;60383;46.626;18.866;2023-09-18T00:59:19;4.93;;;4.10;;
58071;SDS011;60383;46.626;18.866;2023-09-18T01:01:46;5.63;;;4.35;;
58071;SDS011;60383;46.626;18.866;2023-09-18T01:04:15;5.78;;;4.55;;
58071;SDS011;60383;46.626;18.866;2023-09-18T01:06:42;5.88;;;4.35;;
58071;SDS011;60383;46.626;18.866;2023-09-18T01:09:08;6.13;;;4.40;;
58071;SDS011;60383;46.626;18.866;2023-09-18T01:16:59;7.65;;;4.78;;
58071;SDS011;60383;46.626;18.866;2023-09-18T01:19:38;7.82;;;4.88;;
58071;SDS011;60383;46.626;18.866;2023-09-18T01:22:16;6.47;;;4.55;;
58071;SDS011;60383;46.626;18.866;2023-09-18T01:24:43;6.15;;;4.22;;
58071;SDS011;60383;46.626;18.866;2023-09-18T01:27:11;6.47;;;4.13;;
58071;SDS011;60383;46.626;18.866;2023-09-18T01:29:44;6.20;;;4.60;;
58071;SDS011;60383;46.626;18.866;2023-09-18T01:32:12;6.47;;;4.25;;
58071;SDS011;60383;46.626;18.866;2023-09-18T01:34:43;7.00;;;4.53;;
58071;SDS011;60383;46.626;18.866;2023-09-18T01:37:15;7.07;;;4.55;;
58071;SDS011;60383;46.626;18.866;2023-09-18T01:39:43;6.88;;;4.80;;
58071;SDS011;60383;46.626;18.866;2023-09-18T01:42:10;5.25;;;4.28;;
58071;SDS011;60383;46.626;18.866;2023-09-18T01:44:36;5.68;;;4.50;;
58071;SDS011;60383;46.626;18.866;2023-09-18T01:47:03;7.47;;;5.00;;
58071;SDS011;60383;46.626;18.866;2023-09-18T01:49:34;6.03;;;4.25;;
58071;SDS011;60383;46.626;18.866;2023-09-18T01:52:01;7.38;;;4.55;;
58071;SDS011;60383;46.626;18.866;2023-09-18T01:54:28;5.90;;;4.53;;
58071;SDS011;60383;46.626;18.866;2023-09-18T01:56:54;6.95;;;4.53;;
58071;SDS011;60383;46.626;18.866;2023-09-18T01:59:20;5.72;;;4.53;;
58071;SDS011;60383;46.626;18.866;2023-09-18T02:01:47;6.40;;;4.80;;
58071;SDS011;60383;46.626;18.866;2023-09-18T02:04:13;7.43;;;4.60;;
58071;SDS011;60383;46.626;18.866;2023-09-18T02:06:38;5.57;;;4.53;;
58071;SDS011;60383;46.626;18.866;2023-09-18T02:09:05;7.47;;;5.68;;
58071;SDS011;60383;46.626;18.866;2023-09-18T02:11:30;6.18;;;4.60;;
58071;SDS011;60383;46.626;18.866;2023-09-18T02:13:56;7.18;;;4.88;;
58071;SDS011;60383;46.626;18.866;2023-09-18T02:16:21;6.85;;;4.82;;
58071;SDS011;60383;46.626;18.866;2023-09-18T02:18:47;5.57;;;4.47;;
58071;SDS011;60383;46.626;18.866;2023-09-18T02:21:22;5.93;;;4.47;;
58071;SDS011;60383;46.626;18.866;2023-09-18T02:23:51;7.00;;;4.85;;
58071;SDS011;60383;46.626;18.866;2023-09-18T02:26:21;8.80;;;4.97;;
58071;SDS011;60383;46.626;18.866;2023-09-18T02:28:48;7.18;;;5.28;;
58071;SDS011;60383;46.626;18.866;2023-09-18T02:31:14;8.50;;;5.53;;
58071;SDS011;60383;46.626;18.866;2023-09-18T02:33:39;6.25;;;4.60;;
58071;SDS011;60383;46.626;18.866;2023-09-18T02:36:05;8.07;;;4.80;;
58071;SDS011;60383;46.626;18.866;2023-09-18T02:38:32;8.90;;;5.47;;
58071;SDS011;60383;46.626;18.866;2023-09-18T02:40:58;6.18;;;4.88;;
58071;SDS011;60383;46.626;18.866;2023-09-18T02:43:23;8.75;;;4.80;;
58071;SDS011;60383;46.626;18.866;2023-09-18T02:45:49;6.95;;;5.57;;
58071;SDS011;60383;46.626;18.866;2023-09-18T02:48:15;7.80;;;5.40;;
58071;SDS011;60383;46.626;18.866;2023-09-18T02:50:41;7.68;;;5.32;;
58071;SDS011;60383;46.626;18.866;2023-09-18T02:53:07;7.50;;;4.90;;
58071;SDS011;60383;46.626;18.866;2023-09-18T02:55:41;6.10;;;4.78;;
58071;SDS011;60383;46.626;18.866;2023-09-18T02:58:06;7.18;;;5.20;;
58071;SDS011;60383;46.626;18.866;2023-09-18T03:00:34;7.40;;;5.10;;
58071;SDS011;60383;46.626;18.866;2023-09-18T03:02:59;6.57;;;5.25;;
58071;SDS011;60383;46.626;18.866;2023-09-18T03:05:25;6.97;;;5.50;;
58071;SDS011;60383;46.626;18.866;2023-09-18T03:07:51;7.68;;;5.65;;
58071;SDS011;60383;46.626;18.866;2023-09-18T03:10:16;7.85;;;5.30;;
58071;SDS011;60383;46.626;18.866;2023-09-18T03:12:43;7.75;;;5.40;;
58071;SDS011;60383;46.626;18.866;2023-09-18T03:15:12;9.13;;;5.55;;
58071;SDS011;60383;46.626;18.866;2023-09-18T03:17:38;7.70;;;5.15;;
58071;SDS011;60383;46.626;18.866;2023-09-18T03:20:06;8.05;;;5.88;;
58071;SDS011;60383;46.626;18.866;2023-09-18T03:22:32;8.25;;;6.05;;
58071;SDS011;60383;46.626;18.866;2023-09-18T03:24:57;8.43;;;5.65;;
58071;SDS011;60383;46.626;18.866;2023-09-18T03:27:23;10.63;;;5.78;;
58071;SDS011;60383;46.626;18.866;2023-09-18T03:29:53;10.90;;;6.10;;
58071;SDS011;60383;46.626;18.866;2023-09-18T03:32:19;10.07;;;6.57;;
58071;SDS011;60383;46.626;18.866;2023-09-18T03:34:45;8.68;;;6.30;;
58071;SDS011;60383;46.626;18.866;2023-09-18T03:37:10;9.00;;;6.38;;
58071;SDS011;60383;46.626;18.866;2023-09-18T03:39:36;8.70;;;6.07;;
58071;SDS011;60383;46.626;18.866;2023-09-18T03:42:01;8.02;;;5.82;;
58071;SDS011;60383;46.626;18.866;2023-09-18T03:44:27;9.25;;;6.30;;
58071;SDS011;60383;46.626;18.866;2023-09-18T03:46:53;8.95;;;5.50;;
58071;SDS011;60383;46.626;18.866;2023-09-18T03:49:18;8.73;;;6.35;;
58071;SDS011;60383;46.626;18.866;2023-09-18T03:51:44;9.70;;;5.82;;
58071;SDS011;60383;46.626;18.866;2023-09-18T03:54:09;10.30;;;5.70;;
58071;SDS011;60383;46.626;18.866;2023-09-18T03:56:35;9.45;;;6.20;;
58071;SDS011;60383;46.626;18.866;2023-09-18T03:59:00;8.23;;;6.28;;
58071;SDS011;60383;46.626;18.866;2023-09-18T04:01:26;8.90;;;6.05;;
58071;SDS011;60383;46.626;18.866;2023-09-18T04:03:52;8.70;;;6.28;;
58071;SDS011;60383;46.626;18.866;2023-09-18T04:06:20;10.23;;;6.45;;
58071;SDS011;60383;46.626;18.866;2023-09-18T04:08:46;9.52;;;5.85;;
58071;SDS011;60383;46.626;18.866;2023-09-18T04:11:12;9.43;;;6.32;;
58071;SDS011;60383;46.626;18.866;2023-09-18T04:13:37;8.13;;;6.25;;
58071;SDS011;60383;46.626;18.866;2023-09-18T04:16:04;8.93;;;6.43;;
58071;SDS011;60383;46.626;18.866;2023-09-18T04:18:29;8.48;;;6.10;;
58071;SDS011;60383;46.626;18.866;2023-09-18T04:20:55;9.65;;;6.03;;
58071;SDS011;60383;46.626;18.866;2023-09-18T04:25:47;8.93;;;5.70;;
58071;SDS011;60383;46.626;18.866;2023-09-18T04:28:17;8.80;;;5.68;;
58071;SDS011;60383;46.626;18.866;2023-09-18T04:30:44;9.52;;;6.40;;
58071;SDS011;60383;46.626;18.866;2023-09-18T04:33:10;9.18;;;5.90;;
58071;SDS011;60383;46.626;18.866;2023-09-18T04:35:37;9.65;;;6.43;;
58071;SDS011;60383;46.626;18.866;2023-09-18T04:38:05;8.65;;;5.97;;
58071;SDS011;60383;46.626;18.866;2023-09-18T04:40:32;12.23;;;6.50;;
58071;SDS011;60383;46.626;18.866;2023-09-18T04:43:01;9.40;;;6.55;;
58071;SDS011;60383;46.626;18.866;2023-09-18T04:45:27;9.23;;;5.60;;
58071;SDS011;60383;46.626;18.866;2023-09-18T04:47:52;8.65;;;5.82;;
58071;SDS011;60383;46.626;18.866;2023-09-18T04:50:18;9.48;;;6.55;;
58071;SDS011;60383;46.626;18.866;2023-09-18T04:52:44;9.52;;;6.32;;
58071;SDS011;60383;46.626;18.866;2023-09-18T04:55:10;8.05;;;5.85;;
58071;SDS011;60383;46.626;18.866;2023-09-18T04:57:36;10.18;;;6.45;;
58071;SDS011;60383;46.626;18.866;2023-09-18T05:00:03;11.07;;;6.03;;
58071;SDS011;60383;46.626;18.866;2023-09-18T05:02:33;7.68;;;5.85;;
58071;SDS011;60383;46.626;18.866;2023-09-18T05:04:59;9.18;;;5.90;;
58071;SDS011;60383;46.626;18.866;2023-09-18T05:07:25;9.15;;;6.45;;
58071;SDS011;60383;46.626;18.866;2023-09-18T05:09:51;10.18;;;6.22;;
58071;SDS011;60383;46.626;18.866;2023-09-18T05:12:16;7.10;;;5.38;;
58071;SDS011;60383;46.626;18.866;2023-09-18T05:14:42;10.80;;;6.38;;
58071;SDS011;60383;46.626;18.866;2023-09-18T05:17:13;7.90;;;6.18;;
58071;SDS011;60383;46.626;18.866;2023-09-18T05:19:40;7.72;;;6.13;;
58071;SDS011;60383;46.626;18.866;2023-09-18T05:22:06;8.85;;;6.78;;
58071;SDS011;60383;46.626;18.866;2023-09-18T05:24:31;9.30;;;5.95;;
58071;SDS011;60383;46.626;18.866;2023-09-18T05:26:57;8.48;;;6.20;;
58071;SDS011;60383;46.626;18.866;2023-09-18T05:29:23;9.57;;;5.93;;
58071;SDS011;60383;46.626;18.866;2023-09-18T05:31:49;9.73;;;6.00;;
58071;SDS011;60383;46.626;18.866;2023-09-18T05:34:14;6.97;;;5.70;;
58071;SDS011;60383;46.626;18.866;2023-09-18T05:36:40;8.18;;;5.50;;
58071;SDS011;60383;46.626;18.866;2023-09-18T05:39:05;7.88;;;5.70;;
58071;SDS011;60383;46.626;18.866;2023-09-18T05:44:01;9.45;;;6.63;;
58071;SDS011;60383;46.626;18.866;2023-09-18T05:46:28;8.02;;;5.50;;
58071;SDS011;60383;46.626;18.866;2023-09-18T05:48:54;7.93;;;6.15;;
58071;SDS011;60383;46.626;18.866;2023-09-18T05:51:22;9.35;;;6.07;;
58071;SDS011;60383;46.626;18.866;2023-09-18T05:53:47;9.57;;;5.93;;
58071;SDS011;60383;46.626;18.866;2023-09-18T05:56:13;12.07;;;5.90;;
58071;SDS011;60383;46.626;18.866;2023-09-18T05:58:39;9.43;;;5.90;;
58071;SDS011;60383;46.626;18.866;2023-09-18T06:01:06;9.18;;;6.82;;
58071;SDS011;60383;46.626;18.866;2023-09-18T06:03:32;8.95;;;6.40;;
58071;SDS011;60383;46.626;18.866;2023-09-18T06:06:03;8.85;;;6.50;;
58071;SDS011;60383;46.626;18.866;2023-09-18T06:08:30;10.50;;;5.82;;
58071;SDS011;60383;46.626;18.866;2023-09-18T06:10:56;9.77;;;6.35;;
58071;SDS011;60383;46.626;18.866;2023-09-18T06:13:24;9.23;;;5.90;;
58071;SDS011;60383;46.626;18.866;2023-09-18T06:15:50;10.57;;;7.13;;
58071;SDS011;60383;46.626;18.866;2023-09-18T06:18:17;9.40;;;6.55;;
58071;SDS011;60383;46.626;18.866;2023-09-18T06:20:45;8.27;;;5.80;;
58071;SDS011;60383;46.626;18.866;2023-09-18T06:23:14;10.82;;;6.20;;
58071;SDS011;60383;46.626;18.866;2023-09-18T06:25:40;10.40;;;5.88;;
58071;SDS011;60383;46.626;18.866;2023-09-18T06:28:06;7.88;;;5.65;;
58071;SDS011;60383;46.626;18.866;2023-09-18T06:30:32;9.90;;;6.20;;
58071;SDS011;60383;46.626;18.866;2023-09-18T06:32:58;10.38;;;6.43;;
58071;SDS011;60383;46.626;18.866;2023-09-18T06:35:24;9.48;;;6.55;;
58071;SDS011;60383;46.626;18.866;2023-09-18T06:37:50;9.18;;;6.55;;
58071;SDS011;60383;46.626;18.866;2023-09-18T06:40:16;10.95;;;7.03;;
58071;SDS011;60383;46.626;18.866;2023-09-18T06:42:42;8.43;;;6.45;;
58071;SDS011;60383;46.626;18.866;2023-09-18T06:45:08;10.38;;;6.07;;
58071;SDS011;60383;46.626;18.866;2023-09-18T06:47:34;7.68;;;5.75;;
58071;SDS011;60383;46.626;18.866;2023-09-18T06:49:59;8.20;;;6.00;;
58071;SDS011;60383;46.626;18.866;2023-09-18T06:52:29;9.52;;;6.45;;
58071;SDS011;60383;46.626;18.866;2023-09-18T06:54:55;8.23;;;5.97;;
58071;SDS011;60383;46.626;18.866;2023-09-18T06:57:20;8.85;;;6.63;;
58071;SDS011;60383;46.626;18.866;2023-09-18T06:59:46;8.93;;;6.25;;
58071;SDS011;60383;46.626;18.866;2023-09-18T07:02:12;9.75;;;6.65;;
58071;SDS011;60383;46.626;18.866;2023-09-18T07:04:40;11.25;;;6.75;;
58071;SDS011;60383;46.626;18.866;2023-09-18T07:07:10;9.70;;;6.78;;
58071;SDS011;60383;46.626;18.866;2023-09-18T07:09:39;9.80;;;6.70;;
58071;SDS011;60383;46.626;18.866;2023-09-18T07:12:06;7.97;;;6.63;;
58071;SDS011;60383;46.626;18.866;2023-09-18T07:14:32;9.45;;;6.40;;
58071;SDS011;60383;46.626;18.866;2023-09-18T07:16:57;8.82;;;6.72;;
58071;SDS011;60383;46.626;18.866;2023-09-18T07:19:24;10.52;;;7.43;;
58071;SDS011;60383;46.626;18.866;2023-09-18T07:21:51;9.73;;;6.90;;
58071;SDS011;60383;46.626;18.866;2023-09-18T07:24:16;8.57;;;6.38;;
58071;SDS011;60383;46.626;18.866;2023-09-18T07:26:45;10.70;;;7.10;;
58071;SDS011;60383;46.626;18.866;2023-09-18T07:29:11;11.18;;;7.45;;
58071;SDS011;60383;46.626;18.866;2023-09-18T07:31:38;8.82;;;6.63;;
58071;SDS011;60383;46.626;18.866;2023-09-18T07:34:04;22.00;;;9.07;;
58071;SDS011;60383;46.626;18.866;2023-09-18T07:36:30;34.00;;;10.20;;
58071;SDS011;60383;46.626;18.866;2023-09-18T07:38:55;8.20;;;6.25;;
58071;SDS011;60383;46.626;18.866;2023-09-18T07:41:21;8.20;;;6.28;;
58071;SDS011;60383;46.626;18.866;2023-09-18T07:43:47;10.50;;;6.10;;
58071;SDS011;60383;46.626;18.866;2023-09-18T07:46:13;13.35;;;7.47;;
58071;SDS011;60383;46.626;18.866;2023-09-18T07:48:38;8.88;;;6.43;;
58071;SDS011;60383;46.626;18.866;2023-09-18T07:51:04;9.43;;;6.45;;
58071;SDS011;60383;46.626;18.866;2023-09-18T07:53:29;7.93;;;6.03;;
58071;SDS011;60383;46.626;18.866;2023-09-18T07:55:56;10.07;;;6.10;;
58071;SDS011;60383;46.626;18.866;2023-09-18T07:58:26;9.73;;;6.68;;
58071;SDS011;60383;46.626;18.866;2023-09-18T08:00:54;8.30;;;5.95;;
58071;SDS011;60383;46.626;18.866;2023-09-18T08:03:20;8.15;;;6.07;;
58071;SDS011;60383;46.626;18.866;2023-09-18T08:05:49;7.07;;;5.47;;
58071;SDS011;60383;46.626;18.866;2023-09-18T08:08:19;8.30;;;6.60;;
58071;SDS011;60383;46.626;18.866;2023-09-18T08:10:45;7.82;;;6.03;;
58071;SDS011;60383;46.626;18.866;2023-09-18T08:13:12;8.57;;;6.30;;
58071;SDS011;60383;46.626;18.866;2023-09-18T08:15:38;8.95;;;5.93;;
58071;SDS011;60383;46.626;18.866;2023-09-18T08:18:03;8.00;;;6.35;;
58071;SDS011;60383;46.626;18.866;2023-09-18T08:20:29;10.43;;;7.00;;
58071;SDS011;60383;46.626;18.866;2023-09-18T08:22:55;10.52;;;6.95;;
58071;SDS011;60383;46.626;18.866;2023-09-18T08:25:21;20.92;;;8.43;;
58071;SDS011;60383;46.626;18.866;2023-09-18T08:27:47;8.13;;;5.93;;
58071;SDS011;60383;46.626;18.866;2023-09-18T08:30:14;13.75;;;6.40;;
58071;SDS011;60383;46.626;18.866;2023-09-18T08:32:40;16.67;;;8.27;;
58071;SDS011;60383;46.626;18.866;2023-09-18T08:35:07;9.45;;;6.40;;
58071;SDS011;60383;46.626;18.866;2023-09-18T08:37:33;8.45;;;6.63;;
58071;SDS011;60383;46.626;18.866;2023-09-18T08:39:59;7.95;;;6.15;;
58071;SDS011;60383;46.626;18.866;2023-09-18T08:42:34;9.00;;;6.72;;
58071;SDS011;60383;46.626;18.866;2023-09-18T08:45:01;9.77;;;6.63;;
58071;SDS011;60383;46.626;18.866;2023-09-18T08:47:32;9.07;;;6.60;;
58071;SDS011;60383;46.626;18.866;2023-09-18T08:49:59;6.95;;;6.03;;
58071;SDS011;60383;46.626;18.866;2023-09-18T08:52:26;8.98;;;6.30;;
58071;SDS011;60383;46.626;18.866;2023-09-18T08:54:53;9.70;;;6.90;;
58071;SDS011;60383;46.626;18.866;2023-09-18T08:57:21;7.65;;;6.07;;
58071;SDS011;60383;46.626;18.866;2023-09-18T08:59:48;7.60;;;6.10;;
58071;SDS011;60383;46.626;18.866;2023-09-18T09:02:15;9.60;;;6.35;;
58071;SDS011;60383;46.626;18.866;2023-09-18T09:04:40;6.55;;;5.70;;
58071;SDS011;60383;46.626;18.866;2023-09-18T09:07:06;8.95;;;6.38;;
58071;SDS011;60383;46.626;18.866;2023-09-18T09:09:32;9.77;;;6.35;;
58071;SDS011;60383;46.626;18.866;2023-09-18T09:11:58;9.25;;;6.10;;
58071;SDS011;60383;46.626;18.866;2023-09-18T09:14:23;8.05;;;6.15;;
58071;SDS011;60383;46.626;18.866;2023-09-18T09:16:55;8.20;;;6.18;;
58071;SDS011;60383;46.626;18.866;2023-09-18T09:19:34;8.40;;;6.28;;
58071;SDS011;60383;46.626;18.866;2023-09-18T09:22:03;9.80;;;6.28;;
58071;SDS011;60383;46.626;18.866;2023-09-18T09:24:43;9.40;;;6.60;;
58071;SDS011;60383;46.626;18.866;2023-09-18T09:27:09;9.80;;;6.47;;
58071;SDS011;60383;46.626;18.866;2023-09-18T09:29:36;9.00;;;6.57;;
58071;SDS011;60383;46.626;18.866;2023-09-18T09:32:12;7.32;;;6.32;;
58071;SDS011;60383;46.626;18.866;2023-09-18T09:34:40;7.88;;;6.03;;
58071;SDS011;60383;46.626;18.866;2023-09-18T09:37:06;8.68;;;6.50;;
58071;SDS011;60383;46.626;18.866;2023-09-18T09:39:32;8.43;;;6.53;;
58071;SDS011;60383;46.626;18.866;2023-09-18T09:42:01;7.95;;;6.55;;
58071;SDS011;60383;46.626;18.866;2023-09-18T09:46:56;9.80;;;6.50;;
58071;SDS011;60383;46.626;18.866;2023-09-18T09:49:24;9.18;;;6.85;;
58071;SDS011;60383;46.626;18.866;2023-09-18T09:51:53;8.13;;;6.75;;
58071;SDS011;60383;46.626;18.866;2023-09-18T09:54:40;8.23;;;6.63;;
58071;SDS011;60383;46.626;18.866;2023-09-18T09:57:06;8.82;;;6.97;;
58071;SDS011;60383;46.626;18.866;2023-09-18T09:59:31;8.45;;;7.13;;
58071;SDS011;60383;46.626;18.866;2023-09-18T10:02:00;7.78;;;6.72;;
58071;SDS011;60383;46.626;18.866;2023-09-18T10:04:25;7.80;;;6.85;;
58071;SDS011;60383;46.626;18.866;2023-09-18T10:06:56;7.63;;;6.70;;
58071;SDS011;60383;46.626;18.866;2023-09-18T10:09:23;7.13;;;6.43;;
58071;SDS011;60383;46.626;18.866;2023-09-18T10:11:54;7.78;;;6.43;;
58071;SDS011;60383;46.626;18.866;2023-09-18T10:14:31;8.82;;;7.22;;
58071;SDS011;60383;46.626;18.866;2023-09-18T10:17:01;7.97;;;6.68;;
58071;SDS011;60383;46.626;18.866;2023-09-18T10:19:38;8.02;;;6.60;;
58071;SDS011;60383;46.626;18.866;2023-09-18T10:24:52;7.28;;;6.57;;
58071;SDS011;60383;46.626;18.866;2023-09-18T10:27:25;8.45;;;7.53;;
58071;SDS011;60383;46.626;18.866;2023-09-18T10:29:53;8.07;;;7.28;;
58071;SDS011;60383;46.626;18.866;2023-09-18T10:32:19;8.13;;;7.32;;
58071;SDS011;60383;46.626;18.866;2023-09-18T10:34:47;8.07;;;7.28;;
58071;SDS011;60383;46.626;18.866;2023-09-18T10:37:13;8.32;;;6.88;;
58071;SDS011;60383;46.626;18.866;2023-09-18T10:39:40;7.63;;;6.55;;
58071;SDS011;60383;46.626;18.866;2023-09-18T10:42:10;7.82;;;7.03;;
58071;SDS011;60383;46.626;18.866;2023-09-18T10:44:39;8.43;;;7.05;;
58071;SDS011;60383;46.626;18.866;2023-09-18T10:47:05;7.95;;;6.22;;
58071;SDS011;60383;46.626;18.866;2023-09-18T10:49:33;8.52;;;7.35;;
58071;SDS011;60383;46.626;18.866;2023-09-18T10:52:00;8.23;;;7.10;;
58071;SDS011;60383;46.626;18.866;2023-09-18T10:54:26;7.82;;;6.88;;
58071;SDS011;60383;46.626;18.866;2023-09-18T10:56:56;9.80;;;6.75;;
58071;SDS011;60383;46.626;18.866;2023-09-18T10:59:22;7.95;;;7.18;;
58071;SDS011;60383;46.626;18.866;2023-09-18T11:01:48;9.57;;;7.95;;
58071;SDS011;60383;46.626;18.866;2023-09-18T11:04:17;8.90;;;7.72;;
58071;SDS011;60383;46.626;18.866;2023-09-18T11:09:22;8.60;;;7.72;;
58071;SDS011;60383;46.626;18.866;2023-09-18T11:11:52;9.30;;;7.43;;
58071;SDS011;60383;46.626;18.866;2023-09-18T11:14:22;8.43;;;7.63;;
58071;SDS011;60383;46.626;18.866;2023-09-18T11:16:48;9.88;;;8.10;;
58071;SDS011;60383;46.626;18.866;2023-09-18T11:19:18;9.15;;;8.10;;
58071;SDS011;60383;46.626;18.866;2023-09-18T11:21:47;11.48;;;8.23;;
58071;SDS011;60383;46.626;18.866;2023-09-18T11:26:48;11.60;;;8.80;;
58071;SDS011;60383;46.626;18.866;2023-09-18T11:29:16;10.82;;;8.00;;
58071;SDS011;60383;46.626;18.866;2023-09-18T11:31:48;8.75;;;7.40;;
58071;SDS011;60383;46.626;18.866;2023-09-18T11:37:19;8.50;;;7.70;;
58071;SDS011;60383;46.626;18.866;2023-09-18T11:39:45;9.10;;;7.60;;
58071;SDS011;60383;46.626;18.866;2023-09-18T11:42:19;9.52;;;7.10;;
58071;SDS011;60383;46.626;18.866;2023-09-18T11:44:51;11.68;;;8.38;;
58071;SDS011;60383;46.626;18.866;2023-09-18T11:47:18;8.20;;;7.10;;
58071;SDS011;60383;46.626;18.866;2023-09-18T11:49:53;7.32;;;6.57;;
58071;SDS011;60383;46.626;18.866;2023-09-18T11:52:24;7.22;;;6.53;;
58071;SDS011;60383;46.626;18.866;2023-09-18T11:54:52;8.10;;;6.88;;
58071;SDS011;60383;46.626;18.866;2023-09-18T11:57:20;8.48;;;7.45;;
58071;SDS011;60383;46.626;18.866;2023-09-18T11:59:46;7.80;;;6.70;;
58071;SDS011;60383;46.626;18.866;2023-09-18T12:02:30;8.52;;;7.00;;
58071;SDS011;60383;46.626;18.866;2023-09-18T12:05:15;8.68;;;6.90;;
58071;SDS011;60383;46.626;18.866;2023-09-18T12:07:43;7.03;;;6.32;;
58071;SDS011;60383;46.626;18.866;2023-09-18T12:10:10;9.25;;;6.65;;
58071;SDS011;60383;46.626;18.866;2023-09-18T12:12:37;8.10;;;6.72;;
58071;SDS011;60383;46.626;18.866;2023-09-18T12:15:03;7.80;;;6.82;;
58071;SDS011;60383;46.626;18.866;2023-09-18T12:17:29;8.85;;;6.45;;
58071;SDS011;60383;46.626;18.866;2023-09-18T12:19:55;7.53;;;5.95;;
58071;SDS011;60383;46.626;18.866;2023-09-18T12:22:27;6.60;;;5.90;;
58071;SDS011;60383;46.626;18.866;2023-09-18T12:25:07;6.85;;;5.70;;
58071;SDS011;60383;46.626;18.866;2023-09-18T12:27:36;6.63;;;5.60;;
58071;SDS011;60383;46.626;18.866;2023-09-18T12:30:03;6.07;;;5.25;;
58071;SDS011;60383;46.626;18.866;2023-09-18T12:32:32;7.47;;;6.10;;
58071;SDS011;60383;46.626;18.866;2023-09-18T12:35:01;6.25;;;5.60;;
58071;SDS011;60383;46.626;18.866;2023-09-18T12:37:26;6.53;;;5.93;;
58071;SDS011;60383;46.626;18.866;2023-09-18T12:39:52;8.25;;;5.88;;
58071;SDS011;60383;46.626;18.866;2023-09-18T12:42:20;7.40;;;5.55;;
58071;SDS011;60383;46.626;18.866;2023-09-18T12:44:47;6.27;;;5.67;;
58071;SDS011;60383;46.626;18.866;2023-09-18T12:47:14;7.60;;;5.50;;
58071;SDS011;60383;46.626;18.866;2023-09-18T12:49:39;6.65;;;5.55;;
58071;SDS011;60383;46.626;18.866;2023-09-18T12:52:05;7.68;;;6.05;;
58071;SDS011;60383;46.626;18.866;2023-09-18T12:54:36;6.93;;;6.22;;
58071;SDS011;60383;46.626;18.866;2023-09-18T12:57:05;8.33;;;6.50;;
58071;SDS011;60383;46.626;18.866;2023-09-18T12:59:32;6.72;;;5.63;;
58071;SDS011;60383;46.626;18.866;2023-09-18T13:01:58;8.80;;;5.18;;
58071;SDS011;60383;46.626;18.866;2023-09-18T13:04:24;7.97;;;5.88;;
58071;SDS011;60383;46.626;18.866;2023-09-18T13:07:03;7.47;;;6.15;;
58071;SDS011;60383;46.626;18.866;2023-09-18T13:09:33;6.93;;;5.65;;
58071;SDS011;60383;46.626;18.866;2023-09-18T13:12:00;9.23;;;6.95;;
58071;SDS011;60383;46.626;18.866;2023-09-18T13:14:26;10.07;;;8.00;;
58071;SDS011;60383;46.626;18.866;2023-09-18T13:16:52;12.52;;;10.20;;
58071;SDS011;60383;46.626;18.866;2023-09-18T13:19:18;13.88;;;10.80;;
58071;SDS011;60383;46.626;18.866;2023-09-18T13:21:48;13.88;;;11.95;;
58071;SDS011;60383;46.626;18.866;2023-09-18T13:24:29;14.77;;;12.48;;
58071;SDS011;60383;46.626;18.866;2023-09-18T13:26:56;11.25;;;9.20;;
58071;SDS011;60383;46.626;18.866;2023-09-18T13:29:24;11.63;;;9.05;;
58071;SDS011;60383;46.626;18.866;2023-09-18T13:31:50;9.13;;;7.63;;
58071;SDS011;60383;46.626;18.866;2023-09-18T13:34:16;7.65;;;6.40;;
58071;SDS011;60383;46.626;18.866;2023-09-18T13:36:46;7.95;;;6.28;;
58071;SDS011;60383;46.626;18.866;2023-09-18T13:39:14;8.88;;;6.80;;
58071;SDS011;60383;46.626;18.866;2023-09-18T13:41:43;9.32;;;7.13;;
58071;SDS011;60383;46.626;18.866;2023-09-18T13:44:09;9.25;;;7.32;;
58071;SDS011;60383;46.626;18.866;2023-09-18T13:46:35;7.68;;;6.07;;
58071;SDS011;60383;46.626;18.866;2023-09-18T13:49:03;9.27;;;6.72;;
58071;SDS011;60383;46.626;18.866;2023-09-18T13:51:30;7.38;;;5.82;;
58071;SDS011;60383;46.626;18.866;2023-09-18T13:53:58;7.70;;;5.85;;
58071;SDS011;60383;46.626;18.866;2023-09-18T13:56:24;6.32;;;5.50;;
58071;SDS011;60383;46.626;18.866;2023-09-18T13:58:53;8.25;;;7.32;;
58071;SDS011;60383;46.626;18.866;2023-09-18T14:01:21;7.85;;;6.78;;
58071;SDS011;60383;46.626;18.866;2023-09-18T14:03:47;7.00;;;6.30;;
58071;SDS011;60383;46.626;18.866;2023-09-18T14:06:12;8.52;;;6.68;;
58071;SDS011;60383;46.626;18.866;2023-09-18T14:08:38;7.65;;;6.10;;
58071;SDS011;60383;46.626;18.866;2023-09-18T14:11:05;11.40;;;6.43;;
58071;SDS011;60383;46.626;18.866;2023-09-18T14:13:31;7.15;;;5.97;;
58071;SDS011;60383;46.626;18.866;2023-09-18T14:15:57;8.18;;;6.90;;
58071;SDS011;60383;46.626;18.866;2023-09-18T14:18:23;6.45;;;5.57;;
58071;SDS011;60383;46.626;18.866;2023-09-18T14:20:49;6.60;;;5.82;;
58071;SDS011;60383;46.626;18.866;2023-09-18T14:23:14;7.70;;;6.90;;
58071;SDS011;60383;46.626;18.866;2023-09-18T14:25:40;8.13;;;6.43;;
58071;SDS011;60383;46.626;18.866;2023-09-18T14:28:06;7.68;;;6.68;;
58071;SDS011;60383;46.626;18.866;2023-09-18T14:30:32;8.43;;;6.53;;
58071;SDS011;60383;46.626;18.866;2023-09-18T14:32:58;7.15;;;5.93;;
58071;SDS011;60383;46.626;18.866;2023-09-18T14:35:26;6.28;;;5.60;;
58071;SDS011;60383;46.626;18.866;2023-09-18T14:37:52;7.45;;;6.10;;
58071;SDS011;60383;46.626;18.866;2023-09-18T14:40:18;8.90;;;6.25;;
58071;SDS011;60383;46.626;18.866;2023-09-18T14:42:46;9.18;;;6.70;;
58071;SDS011;60383;46.626;18.866;2023-09-18T14:45:11;7.72;;;5.68;;
58071;SDS011;60383;46.626;18.866;2023-09-18T14:47:38;6.15;;;5.47;;
58071;SDS011;60383;46.626;18.866;2023-09-18T14:50:04;7.82;;;5.65;;
58071;SDS011;60383;46.626;18.866;2023-09-18T14:52:30;7.18;;;6.15;;
58071;SDS011;60383;46.626;18.866;2023-09-18T14:54:57;6.55;;;5.57;;
58071;SDS011;60383;46.626;18.866;2023-09-18T14:57:23;6.55;;;4.43;;